5NC0 weather

Carolina Kidney Heliport
Goldsboro, North Carolina, United States

Public forecast

Using degrees Fahrenheit for public forecast. Weather courtesy of forecast.io.

Closest aviation weather report (METAR) to Carolina Kidney Heliport

Closest report is Goldsboro-Wayne Municipal Airport, 3.6 nm (6.7 km) NNW. Retrieved 2020/06/03 00:15 UTC (11 minutes ago):

KGWW 030015Z AUTO 21008KT 10SM CLR 25/17 A3001 RMK AO2 T02510172

Closest aviation forecast (TAF) to Carolina Kidney Heliport

Closest forecast is Seymour Johnson Air Force Base, 3.8 nm (7.0 km) S. Retrieved 2020/06/02 20:08 UTC (4 hours ago):

TAF KGSB 022000Z 0220/0402 22010G20KT 9999 FEW050 QNH2998INS BECMG 0223/0224 23010KT 9999 FEW050 QNH2997INS BECMG 0311/0312 24010G15KT 9999 SKC QNH2984INS BECMG 0323/0324 24012KT 9999 SKC QNH2983INS TX32/0320Z TN19/0310Z